createdAt,value
2023-06-29T00:00:02.298Z,18.49
2023-06-29T00:02:33.190Z,18.48
2023-06-29T00:05:00.350Z,18.46
2023-06-29T00:07:28.117Z,18.44
2023-06-29T00:09:55.981Z,18.41
2023-06-29T00:12:23.562Z,18.39
2023-06-29T00:14:50.913Z,18.38
2023-06-29T00:17:19.713Z,18.38
2023-06-29T00:19:48.956Z,18.37
2023-06-29T00:22:16.896Z,18.35
2023-06-29T00:24:44.734Z,18.34
2023-06-29T00:27:15.066Z,18.31
2023-06-29T00:29:42.995Z,18.29
2023-06-29T00:32:10.795Z,18.28
2023-06-29T00:34:38.300Z,18.26
2023-06-29T00:37:05.805Z,18.27
2023-06-29T00:39:34.645Z,18.25
2023-06-29T00:42:02.827Z,18.22
2023-06-29T00:44:30.120Z,18.19
2023-06-29T00:46:57.328Z,18.17
2023-06-29T00:49:24.694Z,18.14
2023-06-29T00:51:52.644Z,18.13
2023-06-29T00:54:21.568Z,18.14
2023-06-29T00:56:49.680Z,18.15
2023-06-29T00:59:16.930Z,18.16
2023-06-29T01:01:44.423Z,18.16
2023-06-29T01:04:27.161Z,18.15
2023-06-29T01:07:25.580Z,18.15
2023-06-29T01:09:53.349Z,18.17
2023-06-29T01:12:21.221Z,18.18
2023-06-29T01:14:49.076Z,18.17
2023-06-29T01:17:17.205Z,18.20
2023-06-29T01:19:46.727Z,18.21
2023-06-29T01:22:30.115Z,18.21
2023-06-29T01:24:58.447Z,18.17
2023-06-29T01:27:26.086Z,18.18
2023-06-29T01:29:56.697Z,18.20
2023-06-29T01:32:27.462Z,18.22
2023-06-29T01:34:55.203Z,18.22
2023-06-29T01:37:28.077Z,18.21
2023-06-29T01:40:01.636Z,18.19
2023-06-29T01:42:32.728Z,18.17
2023-06-29T01:45:01.687Z,18.17
2023-06-29T01:47:29.167Z,18.16
2023-06-29T01:49:56.707Z,18.13
2023-06-29T01:52:24.338Z,18.13
2023-06-29T01:54:51.896Z,18.11
2023-06-29T01:57:20.408Z,18.13
2023-06-29T01:59:48.039Z,18.13
2023-06-29T02:02:15.326Z,18.12
2023-06-29T02:04:42.952Z,18.12
2023-06-29T02:07:11.574Z,18.12
2023-06-29T02:09:38.748Z,18.12
2023-06-29T02:12:06.592Z,18.13
2023-06-29T02:14:33.846Z,18.11
2023-06-29T02:17:01.615Z,18.11
2023-06-29T02:19:29.167Z,18.12
2023-06-29T02:21:57.367Z,18.14
2023-06-29T02:24:24.779Z,18.13
2023-06-29T02:26:54.159Z,18.13
2023-06-29T02:29:21.984Z,18.13
2023-06-29T02:31:49.679Z,18.13
2023-06-29T02:34:17.046Z,18.11
2023-06-29T02:36:44.559Z,18.13
2023-06-29T02:39:15.915Z,18.13
2023-06-29T02:41:43.694Z,18.14
2023-06-29T02:44:10.759Z,18.14
2023-06-29T02:46:37.885Z,18.15
2023-06-29T02:49:05.045Z,18.15
2023-06-29T02:51:33.229Z,18.16
2023-06-29T02:54:05.124Z,18.18
2023-06-29T02:56:32.366Z,18.18
2023-06-29T02:58:59.510Z,18.21
2023-06-29T03:01:28.898Z,18.22
2023-06-29T03:03:57.536Z,18.23
2023-06-29T03:06:25.015Z,18.24
2023-06-29T03:08:53.980Z,18.26
2023-06-29T03:11:21.524Z,18.26
2023-06-29T03:13:52.230Z,18.29
2023-06-29T03:16:19.665Z,18.29
2023-06-29T03:18:46.850Z,18.29
2023-06-29T03:21:18.668Z,18.30
2023-06-29T03:23:46.592Z,18.31
2023-06-29T03:26:14.455Z,18.30
2023-06-29T03:28:42.021Z,18.28
2023-06-29T03:31:09.318Z,18.29
2023-06-29T03:33:37.082Z,18.27
2023-06-29T03:36:05.983Z,18.26
2023-06-29T03:38:34.000Z,18.25
2023-06-29T03:41:01.356Z,18.24
2023-06-29T03:43:28.699Z,18.25
2023-06-29T03:45:57.940Z,18.27
2023-06-29T03:48:28.751Z,18.28
2023-06-29T03:50:58.059Z,18.30
2023-06-29T03:53:25.429Z,18.31
2023-06-29T03:55:53.017Z,18.32
2023-06-29T03:58:20.655Z,18.34
2023-06-29T04:00:47.953Z,18.36
2023-06-29T04:03:15.184Z,18.37
2023-06-29T04:05:43.652Z,18.36
2023-06-29T04:08:11.418Z,18.38
2023-06-29T04:10:39.210Z,18.39
2023-06-29T04:13:06.660Z,18.42
2023-06-29T04:15:36.462Z,18.43
2023-06-29T04:18:04.315Z,18.43
2023-06-29T04:20:34.095Z,18.45
2023-06-29T04:23:01.694Z,18.48
2023-06-29T04:25:31.840Z,18.51
2023-06-29T04:27:59.015Z,18.55
2023-06-29T04:30:26.148Z,18.57
2023-06-29T04:32:53.745Z,18.61
2023-06-29T04:35:21.049Z,18.67
2023-06-29T04:37:48.419Z,18.70
2023-06-29T04:40:15.991Z,18.71
2023-06-29T04:42:46.973Z,18.73
2023-06-29T04:45:20.439Z,18.74
2023-06-29T04:47:50.775Z,18.73
2023-06-29T04:50:26.482Z,18.76
2023-06-29T04:52:54.888Z,18.77
2023-06-29T04:55:25.788Z,18.80
2023-06-29T04:57:53.331Z,18.81
2023-06-29T05:00:21.275Z,18.84
2023-06-29T05:02:48.725Z,18.87
2023-06-29T05:05:16.095Z,18.88
2023-06-29T05:07:43.944Z,18.91
2023-06-29T05:10:11.415Z,18.96
2023-06-29T05:12:38.730Z,19.04
2023-06-29T05:15:06.932Z,19.11
2023-06-29T05:17:35.635Z,19.16
2023-06-29T05:20:06.591Z,19.21
2023-06-29T05:22:34.032Z,19.23
2023-06-29T05:25:01.651Z,19.25
2023-06-29T05:27:28.976Z,19.27
2023-06-29T05:29:56.454Z,19.30
2023-06-29T05:32:23.670Z,19.35
2023-06-29T05:34:50.834Z,19.40
2023-06-29T05:37:18.221Z,19.42
2023-06-29T05:39:45.581Z,19.44
2023-06-29T05:42:12.766Z,19.49
2023-06-29T05:44:40.065Z,19.52
2023-06-29T05:47:10.064Z,19.58
2023-06-29T05:49:38.483Z,19.60
2023-06-29T05:52:06.241Z,19.65
2023-06-29T05:54:33.453Z,19.69
2023-06-29T05:57:00.631Z,19.75
2023-06-29T05:59:27.944Z,19.79
2023-06-29T06:01:55.453Z,19.79
2023-06-29T06:04:22.999Z,19.80
2023-06-29T06:06:50.777Z,19.84
2023-06-29T06:09:18.059Z,19.87
2023-06-29T06:11:45.360Z,19.93
2023-06-29T06:14:12.689Z,19.95
2023-06-29T06:16:39.950Z,19.99
2023-06-29T06:19:07.370Z,20.05
2023-06-29T06:21:34.613Z,20.11
2023-06-29T06:24:01.782Z,20.18
2023-06-29T06:26:30.503Z,20.24
2023-06-29T06:28:57.766Z,20.28
2023-06-29T06:31:34.210Z,20.31
2023-06-29T06:34:02.467Z,20.34
2023-06-29T06:36:33.703Z,20.39
2023-06-29T06:39:01.781Z,20.41
2023-06-29T06:41:29.367Z,20.46
2023-06-29T06:43:58.132Z,20.50
2023-06-29T06:46:25.928Z,20.54
2023-06-29T06:48:53.465Z,20.58
2023-06-29T06:51:21.555Z,20.64
2023-06-29T06:53:48.985Z,20.68
2023-06-29T06:56:16.663Z,20.73
2023-06-29T06:58:43.997Z,20.79
2023-06-29T07:01:12.683Z,20.86
2023-06-29T07:03:40.664Z,20.89
2023-06-29T07:06:07.832Z,20.94
2023-06-29T07:08:36.835Z,20.97
2023-06-29T07:11:04.337Z,20.97
2023-06-29T07:13:32.663Z,21.04
2023-06-29T07:16:00.085Z,21.09
2023-06-29T07:18:27.384Z,21.15
2023-06-29T07:25:55.623Z,21.26
2023-06-29T07:28:23.831Z,21.32
2023-06-29T07:30:52.618Z,21.38
2023-06-29T07:33:19.966Z,21.43
2023-06-29T07:35:47.518Z,21.48
2023-06-29T07:38:15.213Z,21.50
2023-06-29T07:40:43.572Z,21.54
2023-06-29T07:43:10.798Z,21.57
2023-06-29T07:45:38.463Z,21.62
2023-06-29T07:48:06.453Z,21.65
2023-06-29T07:50:33.835Z,21.67
2023-06-29T07:53:01.020Z,21.69
2023-06-29T07:55:28.260Z,21.74
2023-06-29T08:00:26.288Z,21.79
2023-06-29T08:02:56.234Z,21.84
2023-06-29T08:07:55.295Z,21.96
2023-06-29T08:10:23.411Z,22.02
2023-06-29T08:12:51.185Z,22.11
2023-06-29T08:15:18.508Z,22.20
2023-06-29T08:17:45.750Z,22.29
2023-06-29T08:20:14.170Z,22.38
2023-06-29T08:22:44.406Z,22.41
2023-06-29T08:25:11.587Z,22.40
2023-06-29T08:27:40.688Z,22.38
2023-06-29T08:30:10.029Z,22.40
2023-06-29T08:32:37.915Z,22.41
2023-06-29T08:35:06.148Z,22.45
2023-06-29T08:37:33.883Z,22.51
2023-06-29T08:40:01.989Z,22.58
2023-06-29T08:42:29.835Z,22.62
2023-06-29T08:44:57.112Z,22.64
2023-06-29T08:47:25.719Z,22.59
2023-06-29T08:49:55.890Z,22.56
2023-06-29T08:52:26.595Z,22.56
2023-06-29T08:54:53.973Z,22.56
2023-06-29T08:57:21.592Z,22.59
2023-06-29T08:59:52.122Z,22.63
2023-06-29T09:02:19.708Z,22.67
2023-06-29T09:04:47.521Z,22.77
2023-06-29T09:07:15.883Z,22.84
2023-06-29T09:09:44.480Z,22.88
2023-06-29T09:12:12.265Z,22.88
2023-06-29T09:14:44.968Z,22.87
2023-06-29T09:17:19.025Z,22.86
2023-06-29T09:19:55.967Z,22.86
2023-06-29T09:22:23.240Z,22.82
2023-06-29T09:25:01.895Z,22.81
2023-06-29T09:27:30.757Z,22.80
2023-06-29T09:29:58.741Z,22.80
2023-06-29T09:32:26.332Z,22.81
2023-06-29T09:34:53.852Z,22.80
2023-06-29T09:37:21.355Z,22.80
2023-06-29T09:40:12.752Z,22.82
2023-06-29T09:42:40.357Z,22.83
2023-06-29T09:45:15.702Z,22.83
2023-06-29T09:50:24.341Z,22.92
2023-06-29T09:52:55.031Z,22.92
2023-06-29T09:55:30.870Z,22.98
2023-06-29T09:57:58.640Z,23.05
2023-06-29T10:00:25.783Z,23.19
2023-06-29T10:02:54.523Z,23.33
2023-06-29T10:05:22.366Z,23.42
2023-06-29T10:07:51.542Z,23.50
2023-06-29T10:10:19.401Z,23.55
2023-06-29T10:12:48.560Z,23.54
2023-06-29T10:15:16.066Z,23.50
2023-06-29T10:17:47.884Z,23.48
2023-06-29T10:20:15.312Z,23.46
2023-06-29T10:22:43.279Z,23.52
2023-06-29T10:25:13.961Z,23.62
2023-06-29T10:27:41.763Z,23.64
2023-06-29T10:30:09.918Z,23.65
2023-06-29T10:32:38.887Z,23.70
2023-06-29T10:35:13.329Z,23.82
2023-06-29T10:37:46.036Z,23.92
2023-06-29T10:40:17.465Z,23.99
2023-06-29T10:42:44.693Z,23.96
2023-06-29T10:45:21.760Z,24.00
2023-06-29T10:47:58.631Z,24.04
2023-06-29T10:50:37.015Z,24.06
2023-06-29T10:53:06.641Z,24.10
2023-06-29T10:55:40.893Z,24.17
2023-06-29T10:58:15.002Z,24.09
2023-06-29T11:00:42.859Z,24.18
2023-06-29T11:03:11.230Z,24.23
2023-06-29T11:05:38.988Z,24.18
2023-06-29T11:08:09.837Z,24.16
2023-06-29T11:10:37.954Z,24.18
2023-06-29T11:13:10.712Z,24.22
2023-06-29T11:15:38.621Z,24.23
2023-06-29T11:18:07.521Z,24.30
2023-06-29T11:20:38.302Z,24.32
2023-06-29T11:23:05.923Z,24.33
2023-06-29T11:25:33.964Z,24.44
2023-06-29T11:28:01.354Z,24.55
2023-06-29T11:30:28.819Z,24.64
2023-06-29T11:32:56.356Z,24.71
2023-06-29T11:35:23.859Z,24.74
2023-06-29T11:37:52.724Z,24.82
2023-06-29T11:40:25.068Z,24.91
2023-06-29T11:42:53.203Z,24.93
2023-06-29T11:45:22.219Z,24.97
2023-06-29T11:47:56.529Z,25.08
2023-06-29T11:50:27.269Z,25.12
2023-06-29T11:52:55.146Z,25.19
2023-06-29T11:55:24.067Z,25.30
2023-06-29T11:57:52.788Z,25.36
2023-06-29T12:00:20.457Z,25.38
2023-06-29T12:02:51.286Z,25.33
2023-06-29T12:05:18.759Z,25.22
2023-06-29T12:07:47.228Z,25.20
2023-06-29T12:10:21.211Z,25.17
2023-06-29T12:13:00.420Z,25.11
2023-06-29T12:15:29.206Z,25.09
2023-06-29T12:18:12.266Z,25.07
2023-06-29T12:20:41.906Z,25.02
2023-06-29T12:23:10.330Z,24.97
2023-06-29T12:25:46.156Z,24.93
2023-06-29T12:28:14.129Z,24.92
2023-06-29T12:30:41.706Z,24.89
2023-06-29T12:33:10.204Z,24.87
2023-06-29T12:35:38.336Z,24.87
2023-06-29T12:38:05.871Z,24.85
2023-06-29T12:40:34.828Z,24.81
2023-06-29T12:43:02.370Z,24.79
2023-06-29T12:45:30.004Z,24.80
2023-06-29T12:47:58.768Z,24.84
2023-06-29T12:50:26.087Z,24.85
2023-06-29T12:52:53.678Z,24.91
2023-06-29T12:55:21.558Z,24.97
2023-06-29T12:57:49.224Z,24.96
2023-06-29T13:00:19.853Z,24.94
2023-06-29T13:02:48.698Z,24.91
2023-06-29T13:05:16.223Z,24.83
2023-06-29T13:07:44.718Z,24.77
2023-06-29T13:10:15.103Z,24.69
2023-06-29T13:12:43.803Z,24.68
2023-06-29T13:15:12.115Z,24.72
2023-06-29T13:17:40.126Z,24.74
2023-06-29T13:20:09.536Z,24.72
2023-06-29T13:22:37.278Z,24.65
2023-06-29T13:25:05.375Z,24.58
2023-06-29T13:27:34.864Z,24.53
2023-06-29T13:30:03.097Z,24.51
2023-06-29T13:32:30.434Z,24.47
2023-06-29T13:34:59.116Z,24.47
2023-06-29T13:37:26.897Z,24.48
2023-06-29T13:39:55.193Z,24.48
2023-06-29T13:42:23.422Z,24.47
2023-06-29T13:44:50.734Z,24.45
2023-06-29T13:47:20.536Z,24.40
2023-06-29T13:49:47.991Z,24.32
2023-06-29T13:52:15.554Z,24.23
2023-06-29T13:54:43.865Z,24.09
2023-06-29T13:57:11.652Z,24.02
2023-06-29T13:59:39.213Z,23.96
2023-06-29T14:02:06.669Z,23.87
2023-06-29T14:04:34.286Z,23.78
2023-06-29T14:07:01.826Z,23.73
2023-06-29T14:09:31.342Z,23.67
2023-06-29T14:11:59.263Z,23.62
2023-06-29T14:14:26.791Z,23.57
2023-06-29T14:16:54.134Z,23.46
2023-06-29T14:19:21.868Z,23.36
2023-06-29T14:21:49.325Z,23.33
2023-06-29T14:24:17.283Z,23.31
2023-06-29T14:26:44.929Z,23.29
2023-06-29T14:29:12.423Z,23.30
2023-06-29T14:31:47.419Z,23.30
2023-06-29T14:34:21.561Z,23.27
2023-06-29T14:36:49.028Z,23.21
2023-06-29T14:39:16.588Z,23.18
2023-06-29T14:41:59.321Z,23.20
2023-06-29T14:44:27.999Z,23.17
2023-06-29T14:46:56.579Z,23.18
2023-06-29T14:49:24.366Z,23.14
2023-06-29T14:51:52.226Z,23.11
2023-06-29T14:54:20.337Z,23.07
2023-06-29T14:56:47.805Z,23.00
2023-06-29T14:59:19.737Z,22.93
2023-06-29T15:01:47.028Z,22.89
2023-06-29T15:04:14.439Z,22.89
2023-06-29T15:06:43.641Z,22.88
2023-06-29T15:09:11.043Z,22.88
2023-06-29T15:11:38.317Z,22.88
2023-06-29T15:14:05.898Z,22.84
2023-06-29T15:16:33.294Z,22.80
2023-06-29T15:19:00.900Z,22.76
2023-06-29T15:21:28.485Z,22.78
2023-06-29T15:23:56.517Z,22.86
2023-06-29T15:26:27.535Z,22.97
2023-06-29T15:28:54.759Z,23.10
2023-06-29T15:31:22.090Z,23.15
2023-06-29T15:33:49.909Z,23.13
2023-06-29T15:36:17.354Z,23.11
2023-06-29T15:38:44.605Z,23.07
2023-06-29T15:41:11.910Z,23.00
2023-06-29T15:43:40.175Z,22.92
2023-06-29T15:46:07.469Z,22.89
2023-06-29T15:48:36.060Z,22.84
2023-06-29T15:51:04.114Z,22.81
2023-06-29T15:53:32.597Z,22.76
2023-06-29T15:56:00.142Z,22.72
2023-06-29T15:58:28.546Z,22.68
2023-06-29T16:00:56.069Z,22.65
2023-06-29T16:03:23.325Z,22.63
2023-06-29T16:05:50.846Z,22.59
2023-06-29T16:08:18.190Z,22.58
2023-06-29T16:10:45.868Z,22.59
2023-06-29T16:13:13.580Z,22.57
2023-06-29T16:15:40.864Z,22.55
2023-06-29T16:18:08.016Z,22.52
2023-06-29T16:20:37.101Z,22.52
2023-06-29T16:23:06.941Z,22.53
2023-06-29T16:25:35.193Z,22.54
2023-06-29T16:28:02.481Z,22.53
2023-06-29T16:30:36.198Z,22.49
2023-06-29T16:33:04.204Z,22.44
2023-06-29T16:35:31.741Z,22.44
2023-06-29T16:37:58.876Z,22.39
2023-06-29T16:40:26.777Z,22.35
2023-06-29T16:42:53.958Z,22.30
2023-06-29T16:45:21.229Z,22.24
2023-06-29T16:47:49.945Z,22.21
2023-06-29T16:50:17.729Z,22.22
2023-06-29T16:52:44.916Z,22.19
2023-06-29T16:55:12.173Z,22.18
2023-06-29T16:57:40.529Z,22.17
2023-06-29T17:00:09.229Z,22.15
2023-06-29T17:02:37.488Z,22.13
2023-06-29T17:05:05.014Z,22.11
2023-06-29T17:07:33.039Z,22.08
2023-06-29T17:10:00.723Z,22.06
2023-06-29T17:12:28.695Z,22.05
2023-06-29T17:14:56.163Z,22.02
2023-06-29T17:17:23.809Z,21.99
2023-06-29T17:19:52.363Z,21.98
2023-06-29T17:22:19.798Z,21.95
2023-06-29T17:24:46.999Z,21.94
2023-06-29T17:27:14.389Z,21.91
2023-06-29T17:29:41.775Z,21.89
2023-06-29T17:32:09.661Z,21.89
2023-06-29T17:34:38.425Z,21.86
2023-06-29T17:37:06.097Z,21.85
2023-06-29T17:39:33.370Z,21.81
2023-06-29T17:42:00.844Z,21.78
2023-06-29T17:44:28.316Z,21.76
2023-06-29T17:46:55.595Z,21.73
2023-06-29T17:49:27.961Z,21.69
2023-06-29T17:51:55.275Z,21.67
2023-06-29T17:54:22.534Z,21.66
2023-06-29T17:56:49.840Z,21.64
2023-06-29T17:59:17.014Z,21.64
2023-06-29T18:01:44.680Z,21.64
2023-06-29T18:04:12.432Z,21.61
2023-06-29T18:06:40.375Z,21.60
2023-06-29T18:09:08.115Z,21.59
2023-06-29T18:11:35.687Z,21.56
2023-06-29T18:14:03.311Z,21.54
2023-06-29T18:16:32.665Z,21.52
2023-06-29T18:19:00.268Z,21.49
2023-06-29T18:21:28.755Z,21.48
2023-06-29T18:23:56.061Z,21.45
2023-06-29T18:26:23.872Z,21.44
2023-06-29T18:28:52.071Z,21.42
2023-06-29T18:31:19.607Z,21.41
2023-06-29T18:33:47.838Z,21.37
2023-06-29T18:36:15.120Z,21.36
2023-06-29T18:38:43.235Z,21.31
2023-06-29T18:41:28.974Z,21.28
2023-06-29T18:44:01.084Z,21.27
2023-06-29T18:46:28.669Z,21.24
2023-06-29T18:48:55.946Z,21.21
2023-06-29T18:51:23.719Z,21.17
2023-06-29T18:53:51.985Z,21.16
2023-06-29T18:56:20.132Z,21.14
2023-06-29T18:58:48.084Z,21.10
2023-06-29T19:01:15.447Z,21.10
2023-06-29T19:03:43.577Z,21.07
2023-06-29T19:06:11.311Z,21.05
2023-06-29T19:08:38.777Z,21.03
2023-06-29T19:11:07.071Z,21.01
2023-06-29T19:13:35.005Z,20.98
2023-06-29T19:16:03.991Z,20.97
2023-06-29T19:18:31.975Z,20.94
2023-06-29T19:20:59.248Z,20.92
2023-06-29T19:23:27.384Z,20.89
2023-06-29T19:25:54.948Z,20.88
2023-06-29T19:28:22.530Z,20.85
2023-06-29T19:30:49.865Z,20.82
2023-06-29T19:33:17.196Z,20.82
2023-06-29T19:35:44.860Z,20.78
2023-06-29T19:38:12.542Z,20.75
2023-06-29T19:40:39.650Z,20.73
2023-06-29T19:43:07.553Z,20.70
2023-06-29T19:45:35.088Z,20.67
2023-06-29T19:48:02.707Z,20.64
2023-06-29T19:50:30.303Z,20.62
2023-06-29T19:52:57.685Z,20.58
2023-06-29T19:55:25.543Z,20.56
2023-06-29T19:57:53.110Z,20.54
2023-06-29T20:00:20.851Z,20.52
2023-06-29T20:02:54.061Z,20.50
2023-06-29T20:05:21.474Z,20.46
2023-06-29T20:07:48.747Z,20.43
2023-06-29T20:10:16.365Z,20.39
2023-06-29T20:12:45.405Z,20.33
2023-06-29T20:15:12.629Z,20.31
2023-06-29T20:17:40.292Z,20.30
2023-06-29T20:20:08.129Z,20.31
2023-06-29T20:22:35.329Z,20.30
2023-06-29T20:25:02.976Z,20.28
2023-06-29T20:27:30.282Z,20.27
2023-06-29T20:29:57.530Z,20.27
2023-06-29T20:32:24.843Z,20.25
2023-06-29T20:34:51.972Z,20.20
2023-06-29T20:37:19.377Z,20.18
2023-06-29T20:39:46.817Z,20.15
2023-06-29T20:42:14.849Z,20.13
2023-06-29T20:44:42.667Z,20.12
2023-06-29T20:47:09.915Z,20.10
2023-06-29T20:49:37.499Z,20.06
2023-06-29T20:52:05.465Z,20.03
2023-06-29T20:54:33.345Z,20.00
2023-06-29T20:57:01.034Z,19.99
2023-06-29T20:59:28.654Z,19.99
2023-06-29T21:01:57.211Z,19.99
2023-06-29T21:04:24.936Z,19.96
2023-06-29T21:06:52.316Z,19.99
2023-06-29T21:09:20.161Z,19.97
2023-06-29T21:11:47.526Z,19.94
2023-06-29T21:14:14.980Z,19.92
2023-06-29T21:16:42.309Z,19.91
2023-06-29T21:19:09.816Z,19.89
2023-06-29T21:21:37.315Z,19.87
2023-06-29T21:24:04.707Z,19.88
2023-06-29T21:26:32.631Z,19.85
2023-06-29T21:29:02.148Z,19.85
2023-06-29T21:31:32.568Z,19.83
2023-06-29T21:34:00.399Z,19.81
2023-06-29T21:36:28.391Z,19.76
2023-06-29T21:38:55.930Z,19.74
2023-06-29T21:41:23.948Z,19.73
2023-06-29T21:43:51.262Z,19.69
2023-06-29T21:46:18.478Z,19.66
2023-06-29T21:48:45.707Z,19.62
2023-06-29T21:51:13.044Z,19.59
2023-06-29T21:53:41.041Z,19.59
2023-06-29T21:56:21.273Z,19.57
2023-06-29T21:58:53.019Z,19.51
2023-06-29T22:01:21.874Z,19.50
2023-06-29T22:03:49.096Z,19.45
2023-06-29T22:06:16.489Z,19.39
2023-06-29T22:08:43.805Z,19.33
2023-06-29T22:11:11.136Z,19.30
2023-06-29T22:13:39.201Z,19.30
2023-06-29T22:16:07.816Z,19.28
2023-06-29T22:18:35.486Z,19.24
2023-06-29T22:21:04.818Z,19.23
2023-06-29T22:23:32.261Z,19.23
2023-06-29T22:25:59.802Z,19.19
2023-06-29T22:28:27.344Z,19.17
2023-06-29T22:30:54.844Z,19.17
2023-06-29T22:33:21.941Z,19.14
2023-06-29T22:35:49.544Z,19.12
2023-06-29T22:38:18.326Z,19.11
2023-06-29T22:40:45.630Z,19.09
2023-06-29T22:43:13.422Z,19.06
2023-06-29T22:45:41.405Z,19.05
2023-06-29T22:48:08.620Z,19.04
2023-06-29T22:50:39.115Z,19.02
2023-06-29T22:53:07.923Z,18.98
2023-06-29T22:55:35.302Z,18.95
2023-06-29T22:58:02.708Z,18.91
2023-06-29T23:00:30.407Z,18.90
2023-06-29T23:02:57.959Z,18.88
2023-06-29T23:05:25.342Z,18.86
2023-06-29T23:07:53.098Z,18.82
2023-06-29T23:10:21.017Z,18.82
2023-06-29T23:12:48.421Z,18.79
2023-06-29T23:15:16.472Z,18.78
2023-06-29T23:17:44.477Z,18.74
2023-06-29T23:20:14.513Z,18.71
2023-06-29T23:22:42.463Z,18.68
2023-06-29T23:25:10.402Z,18.68
2023-06-29T23:27:42.563Z,18.67
2023-06-29T23:30:12.820Z,18.66
2023-06-29T23:32:41.344Z,18.66
2023-06-29T23:35:09.831Z,18.65
2023-06-29T23:37:37.574Z,18.66
2023-06-29T23:40:10.370Z,18.67
2023-06-29T23:42:38.937Z,18.64
2023-06-29T23:45:10.922Z,18.66
2023-06-29T23:47:39.661Z,18.67
2023-06-29T23:50:14.380Z,18.67
2023-06-29T23:52:43.442Z,18.65
2023-06-29T23:55:12.850Z,18.64
2023-06-29T23:57:40.719Z,18.63
